createdAt,value
2019-05-01T00:02:18.841Z,12.23
2019-05-01T00:05:06.663Z,17.00
2019-05-01T00:07:36.578Z,13.37
2019-05-01T00:10:06.088Z,16.37
2019-05-01T00:12:34.884Z,10.83
2019-05-01T00:15:03.879Z,11.97
2019-05-01T00:17:32.778Z,9.07
2019-05-01T00:20:01.639Z,10.87
2019-05-01T00:22:30.459Z,10.17
2019-05-01T00:24:59.218Z,11.70
2019-05-01T00:27:28.149Z,10.63
2019-05-01T00:29:57.176Z,10.80
2019-05-01T00:32:26.029Z,9.90
2019-05-01T00:34:54.801Z,13.37
2019-05-01T00:37:23.562Z,9.97
2019-05-01T00:39:52.352Z,12.27
2019-05-01T00:42:21.421Z,12.37
2019-05-01T00:44:50.189Z,12.07
2019-05-01T00:47:19.064Z,10.40
2019-05-01T00:49:48.007Z,10.57
2019-05-01T00:52:16.819Z,8.73
2019-05-01T00:54:47.501Z,10.60
2019-05-01T00:57:29.707Z,9.20
2019-05-01T01:00:12.098Z,8.33
2019-05-01T01:02:43.552Z,11.47
2019-05-01T01:05:12.378Z,13.73
2019-05-01T01:07:41.140Z,12.20
2019-05-01T01:10:09.928Z,12.37
2019-05-01T01:12:38.824Z,15.53
2019-05-01T01:15:07.952Z,11.27
2019-05-01T01:17:36.758Z,14.97
2019-05-01T01:20:05.643Z,12.53
2019-05-01T01:22:34.668Z,13.93
2019-05-01T01:25:04.240Z,12.50
2019-05-01T01:27:33.105Z,13.53
2019-05-01T01:30:02.099Z,14.13
2019-05-01T01:32:30.884Z,10.40
2019-05-01T01:35:00.706Z,11.83
2019-05-01T01:37:29.504Z,12.70
2019-05-01T01:39:58.438Z,15.03
2019-05-01T01:42:27.629Z,11.20
2019-05-01T01:45:01.806Z,10.53
2019-05-01T01:47:30.685Z,10.83
2019-05-01T01:49:59.417Z,12.47
2019-05-01T01:52:28.243Z,12.23
2019-05-01T01:54:57.153Z,10.20
2019-05-01T01:57:25.943Z,12.23
2019-05-01T01:59:54.759Z,11.67
2019-05-01T02:02:36.675Z,10.90
2019-05-01T02:05:11.178Z,10.13
2019-05-01T02:07:39.968Z,11.10
2019-05-01T02:10:09.015Z,9.80
2019-05-01T02:12:38.636Z,12.13
2019-05-01T02:15:07.473Z,10.23
2019-05-01T02:17:36.291Z,11.60
2019-05-01T02:20:06.134Z,9.43
2019-05-01T02:22:35.024Z,12.90
2019-05-01T02:25:04.829Z,10.50
2019-05-01T02:27:54.483Z,9.67
2019-05-01T02:30:23.859Z,16.23
2019-05-01T02:32:53.469Z,9.80
2019-05-01T02:35:22.719Z,11.77
2019-05-01T02:37:53.126Z,10.97
2019-05-01T02:40:41.513Z,12.77
2019-05-01T02:43:11.894Z,11.43
2019-05-01T02:45:42.354Z,9.57
2019-05-01T02:48:11.519Z,10.93
2019-05-01T02:50:40.526Z,9.10
2019-05-01T02:53:09.451Z,10.03
2019-05-01T02:55:43.810Z,10.97
2019-05-01T02:58:13.464Z,13.80
2019-05-01T03:00:42.208Z,14.63
2019-05-01T03:03:11.770Z,8.20
2019-05-01T03:05:40.749Z,9.27
2019-05-01T03:08:09.819Z,10.90
2019-05-01T03:10:38.675Z,9.60
2019-05-01T03:13:07.460Z,9.70
2019-05-01T03:15:36.409Z,10.37
2019-05-01T03:18:24.299Z,11.40
2019-05-01T03:20:59.494Z,9.37
2019-05-01T03:23:35.060Z,15.80
2019-05-01T03:26:03.979Z,16.30
2019-05-01T03:28:33.025Z,10.70
2019-05-01T03:31:01.730Z,14.53
2019-05-01T03:33:30.749Z,11.50
2019-05-01T03:35:59.553Z,12.57
2019-05-01T03:38:31.553Z,12.37
2019-05-01T03:41:01.627Z,12.40
2019-05-01T03:43:34.244Z,12.03
2019-05-01T03:46:03.211Z,9.97
2019-05-01T03:48:32.099Z,11.27
2019-05-01T03:51:00.906Z,13.33
2019-05-01T03:53:29.860Z,9.07
2019-05-01T03:55:58.681Z,9.10
2019-05-01T03:58:29.775Z,11.40
2019-05-01T04:01:17.816Z,12.37
2019-05-01T04:03:49.696Z,11.80
2019-05-01T04:06:18.719Z,12.63
2019-05-01T04:08:47.467Z,14.23
2019-05-01T04:11:16.344Z,11.53
2019-05-01T04:13:45.020Z,10.70
2019-05-01T04:16:13.940Z,9.87
2019-05-01T04:18:42.841Z,10.53
2019-05-01T04:21:12.725Z,14.03
2019-05-01T04:23:43.379Z,12.67
2019-05-01T04:26:12.990Z,12.50
2019-05-01T04:28:49.072Z,9.93
2019-05-01T04:31:37.254Z,11.10
2019-05-01T04:34:11.632Z,12.17
2019-05-01T04:36:44.289Z,13.53
2019-05-01T04:39:13.291Z,14.30
2019-05-01T04:41:42.663Z,10.80
2019-05-01T04:44:11.631Z,11.23
2019-05-01T04:46:41.314Z,12.27
2019-05-01T04:49:10.293Z,12.27
2019-05-01T04:51:39.379Z,10.93
2019-05-01T04:54:08.230Z,10.13
2019-05-01T04:56:36.988Z,10.93
2019-05-01T04:59:05.981Z,11.97
2019-05-01T05:01:56.700Z,10.27
2019-05-01T05:04:24.769Z,11.47
2019-05-01T05:06:57.879Z,11.80
2019-05-01T05:09:49.028Z,8.90
2019-05-01T05:12:36.887Z,8.17
2019-05-01T05:15:25.167Z,11.20
2019-05-01T05:17:57.413Z,9.00
2019-05-01T05:20:26.279Z,11.50
2019-05-01T05:22:55.006Z,8.83
2019-05-01T05:25:23.834Z,12.30
2019-05-01T05:27:52.609Z,11.93
2019-05-01T05:30:22.242Z,10.40
2019-05-01T05:32:52.694Z,9.27
2019-05-01T05:35:22.167Z,11.00
2019-05-01T05:38:11.096Z,10.70
2019-05-01T05:40:40.289Z,10.93
2019-05-01T05:43:09.629Z,8.13
2019-05-01T05:45:41.909Z,10.30
2019-05-01T05:54:37.294Z,12.13
2019-05-01T05:57:53.018Z,12.00
2019-05-01T06:00:57.638Z,13.23
2019-05-01T06:03:55.121Z,10.37
2019-05-01T06:06:35.800Z,11.03
2019-05-01T06:09:08.915Z,12.57
2019-05-01T06:11:44.328Z,10.17
2019-05-01T06:14:33.273Z,10.13
2019-05-01T06:17:28.554Z,12.37
2019-05-01T06:19:59.926Z,11.40
2019-05-01T06:22:40.800Z,12.30
2019-05-01T06:25:21.218Z,15.00
2019-05-01T06:27:49.308Z,9.40
2019-05-01T06:30:27.945Z,13.43
2019-05-01T06:32:57.044Z,10.60
2019-05-01T06:35:25.969Z,12.17
2019-05-01T06:38:00.834Z,10.40
2019-05-01T06:40:53.114Z,13.53
2019-05-01T06:43:39.530Z,9.97
2019-05-01T06:46:29.060Z,10.27
2019-05-01T06:49:09.992Z,8.90
2019-05-01T06:51:41.009Z,11.63
2019-05-01T06:54:16.195Z,11.13
2019-05-01T06:56:47.896Z,10.73
2019-05-01T06:59:20.509Z,9.97
2019-05-01T07:01:53.269Z,8.93
2019-05-01T07:04:21.949Z,9.87
2019-05-01T07:06:51.566Z,8.37
2019-05-01T07:09:27.803Z,11.63
2019-05-01T07:11:57.693Z,8.03
2019-05-01T07:15:17.565Z,10.80
2019-05-01T07:17:52.798Z,12.33
2019-05-01T07:20:56.448Z,11.73
2019-05-01T07:24:09.119Z,10.60
2019-05-01T07:26:43.968Z,16.23
2019-05-01T07:29:16.007Z,24.87
2019-05-01T07:31:44.901Z,12.70
2019-05-01T07:34:16.763Z,8.73
2019-05-01T07:36:45.675Z,8.93
2019-05-01T07:39:15.915Z,11.43
2019-05-01T07:41:46.953Z,8.30
2019-05-01T07:44:33.815Z,10.90
2019-05-01T07:47:20.928Z,13.03
2019-05-01T07:49:52.625Z,10.07
2019-05-01T07:52:23.232Z,9.90
2019-05-01T07:54:55.388Z,10.00
2019-05-01T07:57:24.230Z,9.10
2019-05-01T07:59:58.200Z,14.10
2019-05-01T08:02:30.971Z,9.07
2019-05-01T08:05:04.961Z,11.03
2019-05-01T08:07:33.619Z,11.73
2019-05-01T08:10:02.499Z,9.00
2019-05-01T08:12:32.944Z,10.10
2019-05-01T08:15:03.594Z,11.67
2019-05-01T08:17:36.389Z,11.10
2019-05-01T08:20:18.153Z,8.87
2019-05-01T08:22:50.926Z,7.20
2019-05-01T08:25:28.777Z,12.67
2019-05-01T08:28:08.517Z,8.17
2019-05-01T08:30:57.755Z,7.53
2019-05-01T08:33:44.788Z,11.10
2019-05-01T08:36:14.339Z,7.80
2019-05-01T08:38:45.113Z,7.83
2019-05-01T08:41:17.219Z,8.00
2019-05-01T08:43:58.479Z,8.70
2019-05-01T08:46:46.736Z,8.03
2019-05-01T08:49:24.098Z,7.17
2019-05-01T08:51:53.090Z,6.80
2019-05-01T08:54:22.848Z,8.10
2019-05-01T08:56:53.026Z,7.43
2019-05-01T08:59:23.985Z,8.30
2019-05-01T09:02:08.506Z,5.33
2019-05-01T09:04:25.283Z,4.97
2019-05-01T09:06:54.078Z,8.47
2019-05-01T09:09:22.941Z,7.50
2019-05-01T09:11:54.631Z,7.07
2019-05-01T09:14:23.086Z,9.47
2019-05-01T09:16:52.781Z,8.30
2019-05-01T09:19:21.866Z,7.33
2019-05-01T09:21:50.789Z,7.10
2019-05-01T09:24:23.029Z,4.33
2019-05-01T09:27:01.415Z,7.53
2019-05-01T09:29:37.446Z,7.57
2019-05-01T09:32:10.028Z,4.70
2019-05-01T09:34:46.268Z,5.53
2019-05-01T09:37:16.729Z,5.00
2019-05-01T09:39:47.283Z,5.17
2019-05-01T09:42:22.859Z,6.43
2019-05-01T09:44:51.019Z,7.03
2019-05-01T09:47:22.759Z,5.63
2019-05-01T09:49:53.813Z,5.80
2019-05-01T09:52:41.668Z,7.63
2019-05-01T09:55:29.568Z,5.87
2019-05-01T09:57:58.296Z,4.10
2019-05-01T10:00:29.701Z,5.07
2019-05-01T10:02:58.479Z,4.20
2019-05-01T10:05:28.922Z,4.93
2019-05-01T10:08:00.135Z,5.57
2019-05-01T10:10:29.238Z,5.37
2019-05-01T10:12:58.916Z,7.47
2019-05-01T10:15:27.904Z,9.77
2019-05-01T10:17:56.879Z,4.23
2019-05-01T10:20:25.808Z,4.93
2019-05-01T10:22:54.709Z,3.03
2019-05-01T10:25:23.580Z,2.37
2019-05-01T10:27:58.441Z,4.20
2019-05-01T10:30:38.583Z,2.50
2019-05-01T10:33:12.378Z,4.40
2019-05-01T10:36:00.164Z,5.00
2019-05-01T10:38:32.079Z,4.20
2019-05-01T10:41:04.203Z,4.10
2019-05-01T10:43:31.446Z,4.27
2019-05-01T10:46:00.348Z,3.63
2019-05-01T10:48:29.187Z,7.03
2019-05-01T10:50:58.025Z,4.10
2019-05-01T10:53:26.865Z,3.90
2019-05-01T10:55:58.143Z,2.63
2019-05-01T10:58:28.457Z,5.87
2019-05-01T11:01:04.079Z,3.60
2019-05-01T11:03:32.948Z,4.70
2019-05-01T11:06:01.852Z,4.30
2019-05-01T11:08:30.720Z,3.43
2019-05-01T11:10:59.488Z,3.53
2019-05-01T11:13:28.389Z,5.93
2019-05-01T11:15:57.208Z,5.07
2019-05-01T11:18:26.107Z,5.23
2019-05-01T11:20:54.908Z,3.33
2019-05-01T11:23:23.850Z,5.77
2019-05-01T11:25:53.904Z,3.50
2019-05-01T11:28:22.768Z,4.73
2019-05-01T11:30:51.639Z,3.20
2019-05-01T11:33:29.459Z,3.97
2019-05-01T11:36:09.993Z,5.13
2019-05-01T11:38:57.973Z,4.03
2019-05-01T11:41:34.010Z,5.87
2019-05-01T11:44:02.919Z,11.70
2019-05-01T11:46:31.953Z,6.87
2019-05-01T11:49:02.106Z,6.43
2019-05-01T11:51:31.274Z,6.37
2019-05-01T11:54:02.235Z,7.80
2019-05-01T11:56:31.109Z,4.73
2019-05-01T11:59:01.308Z,8.37
2019-05-01T12:01:30.459Z,7.27
2019-05-01T12:03:59.449Z,6.80
2019-05-01T12:06:28.268Z,7.67
2019-05-01T12:08:57.319Z,6.37
2019-05-01T12:11:28.100Z,5.93
2019-05-01T12:13:57.484Z,7.57
2019-05-01T12:16:45.338Z,7.50
2019-05-01T12:19:14.230Z,7.83
2019-05-01T12:21:43.021Z,7.13
2019-05-01T12:24:11.895Z,8.77
2019-05-01T12:26:40.680Z,7.77
2019-05-01T12:29:10.039Z,11.10
2019-05-01T12:31:38.854Z,11.70
2019-05-01T12:34:07.944Z,8.63
2019-05-01T12:36:38.173Z,8.33
2019-05-01T12:39:08.733Z,8.47
2019-05-01T12:41:42.737Z,9.43
2019-05-01T12:44:11.979Z,10.40
2019-05-01T12:46:55.255Z,11.83
2019-05-01T12:49:24.245Z,10.23
2019-05-01T12:51:55.686Z,8.90
2019-05-01T12:54:44.069Z,10.10
2019-05-01T12:57:17.141Z,11.53
2019-05-01T12:59:45.933Z,11.27
2019-05-01T13:02:14.853Z,9.30
2019-05-01T13:04:47.968Z,12.03
2019-05-01T13:07:16.793Z,10.40
2019-05-01T13:09:45.498Z,9.93
2019-05-01T13:12:14.307Z,8.83
2019-05-01T13:14:43.732Z,11.17
2019-05-01T13:17:12.640Z,11.60
2019-05-01T13:19:44.903Z,10.00
2019-05-01T13:22:13.828Z,10.57
2019-05-01T13:24:51.618Z,11.67
2019-05-01T13:27:35.785Z,10.53
2019-05-01T13:30:19.407Z,10.07
2019-05-01T13:32:50.066Z,11.60
2019-05-01T13:35:18.853Z,10.90
2019-05-01T13:37:47.690Z,13.10
2019-05-01T13:40:16.618Z,11.30
2019-05-01T13:42:48.490Z,12.17
2019-05-01T13:45:17.564Z,12.93
2019-05-01T13:47:46.478Z,12.20
2019-05-01T13:50:21.624Z,12.67
2019-05-01T13:52:50.719Z,12.13
2019-05-01T13:55:19.527Z,15.87
2019-05-01T13:57:50.646Z,114.97
2019-05-01T14:00:22.609Z,17.47
2019-05-01T14:02:51.524Z,17.40
2019-05-01T14:05:20.478Z,17.63
2019-05-01T14:07:52.903Z,19.80
2019-05-01T14:10:26.196Z,19.93
2019-05-01T14:13:20.266Z,17.13
2019-05-01T14:15:50.293Z,21.13
2019-05-01T14:18:22.819Z,24.70
2019-05-01T14:21:13.790Z,19.70
2019-05-01T14:24:01.774Z,22.83
2019-05-01T14:26:35.816Z,19.70
2019-05-01T14:29:04.959Z,19.70
2019-05-01T14:31:34.058Z,19.97
2019-05-01T14:34:02.984Z,19.37
2019-05-01T14:36:31.979Z,19.47
2019-05-01T14:39:00.806Z,20.13
2019-05-01T14:41:29.568Z,21.60
2019-05-01T14:43:58.438Z,21.17
2019-05-01T14:46:29.550Z,20.80
2019-05-01T14:48:58.132Z,20.47
2019-05-01T14:51:27.989Z,20.80
2019-05-01T14:53:56.938Z,21.40
2019-05-01T14:56:25.728Z,22.77
2019-05-01T14:58:57.931Z,22.37
2019-05-01T15:01:26.693Z,22.83
2019-05-01T15:03:56.542Z,22.93
2019-05-01T15:06:26.425Z,25.93
2019-05-01T15:08:55.121Z,27.07
2019-05-01T15:15:03.583Z,28.67
2019-05-01T15:17:37.894Z,40.97
2019-05-01T15:20:10.743Z,27.10
2019-05-01T15:22:39.483Z,24.33
2019-05-01T15:25:09.392Z,24.77
2019-05-01T15:27:38.392Z,22.20
2019-05-01T15:30:08.615Z,20.37
2019-05-01T15:32:40.489Z,21.57
2019-05-01T15:35:12.495Z,20.50
2019-05-01T15:37:41.236Z,21.07
2019-05-01T15:40:17.401Z,25.87
2019-05-01T15:42:53.549Z,26.90
2019-05-01T15:45:22.495Z,23.43
2019-05-01T15:47:52.470Z,23.63
2019-05-01T15:50:21.164Z,26.50
2019-05-01T15:52:50.033Z,23.80
2019-05-01T15:55:18.858Z,35.30
2019-05-01T15:57:47.724Z,29.80
2019-05-01T16:00:18.888Z,28.17
2019-05-01T16:02:53.826Z,37.63
2019-05-01T16:05:22.660Z,36.77
2019-05-01T16:07:51.668Z,37.80
2019-05-01T16:10:47.490Z,32.23
2019-05-01T16:28:41.565Z,28.27
2019-05-01T16:31:10.369Z,26.67
2019-05-01T16:33:39.433Z,27.30
2019-05-01T16:36:08.572Z,29.33
2019-05-01T16:38:51.648Z,31.37
2019-05-01T16:41:20.624Z,27.30
2019-05-01T16:43:49.538Z,30.63
2019-05-01T16:46:21.364Z,31.43
2019-05-01T16:48:50.679Z,36.13
2019-05-01T16:51:19.604Z,38.33
2019-05-01T16:53:48.609Z,44.03
2019-05-01T16:56:17.924Z,43.60
2019-05-01T16:58:47.149Z,39.60
2019-05-01T17:01:34.079Z,43.07
2019-05-01T17:04:10.425Z,34.57
2019-05-01T17:06:58.364Z,39.70
2019-05-01T17:09:49.509Z,34.43
2019-05-01T17:12:21.442Z,36.93
2019-05-01T17:14:50.523Z,36.90
2019-05-01T17:17:22.089Z,33.10
2019-05-01T17:19:51.022Z,31.83
2019-05-01T17:25:03.494Z,31.47
2019-05-01T17:27:33.100Z,29.10
2019-05-01T17:30:06.348Z,33.73
2019-05-01T17:32:39.704Z,30.37
2019-05-01T17:35:10.128Z,28.13
2019-05-01T17:37:39.185Z,28.97
2019-05-01T17:40:08.244Z,29.00
2019-05-01T17:42:40.484Z,28.93
2019-05-01T17:45:12.050Z,27.17
2019-05-01T17:47:41.024Z,29.13
2019-05-01T17:50:10.029Z,27.33
2019-05-01T17:52:39.054Z,27.97
2019-05-01T17:55:08.219Z,28.07
2019-05-01T17:57:37.139Z,30.57
2019-05-01T18:00:21.219Z,30.10
2019-05-01T18:02:57.719Z,29.10
2019-05-01T18:05:40.485Z,32.33
2019-05-01T18:08:09.673Z,34.17
2019-05-01T18:10:39.774Z,32.37
2019-05-01T18:13:09.083Z,35.10
2019-05-01T18:15:38.230Z,37.83
2019-05-01T18:18:14.563Z,33.63
2019-05-01T18:20:53.260Z,32.73
2019-05-01T18:23:42.841Z,30.57
2019-05-01T18:26:20.154Z,28.53
2019-05-01T18:29:00.927Z,26.20
2019-05-01T18:32:03.004Z,26.17
2019-05-01T18:38:16.937Z,24.77
2019-05-01T18:40:48.607Z,23.77
2019-05-01T18:47:46.358Z,25.83
2019-05-01T18:50:15.521Z,31.27
2019-05-01T18:52:44.762Z,26.70
2019-05-01T18:55:16.913Z,26.87
2019-05-01T18:57:47.160Z,25.90
2019-05-01T19:00:41.685Z,25.77
2019-05-01T19:03:22.503Z,26.70
2019-05-01T19:05:58.772Z,29.00
2019-05-01T19:08:30.606Z,27.27
2019-05-01T19:11:11.761Z,27.60
2019-05-01T19:13:31.048Z,26.77
2019-05-01T19:16:03.432Z,28.10
2019-05-01T19:18:30.730Z,26.17
2019-05-01T19:21:00.122Z,28.37
2019-05-01T19:23:33.409Z,25.13
2019-05-01T19:26:07.350Z,33.80
2019-05-01T19:28:36.404Z,36.00
2019-05-01T19:31:05.615Z,37.13
2019-05-01T19:33:37.129Z,32.97
2019-05-01T19:36:08.267Z,31.80
2019-05-01T19:38:58.132Z,27.40
2019-05-01T19:41:27.852Z,30.23
2019-05-01T19:43:59.053Z,29.33
2019-05-01T19:46:30.631Z,27.43
2019-05-01T19:48:59.769Z,27.87
2019-05-01T19:51:28.844Z,26.97
2019-05-01T19:53:57.984Z,27.93
2019-05-01T19:56:27.232Z,30.50
2019-05-01T19:58:56.179Z,31.60
2019-05-01T20:01:26.553Z,28.93
2019-05-01T20:03:58.548Z,30.43
2019-05-01T20:06:30.324Z,29.93
2019-05-01T20:08:59.509Z,31.83
2019-05-01T20:11:29.056Z,31.17
2019-05-01T20:13:57.953Z,33.13
2019-05-01T20:16:27.466Z,34.30
2019-05-01T20:18:56.571Z,30.63
2019-05-01T20:21:25.595Z,32.03
2019-05-01T20:23:54.616Z,34.57
2019-05-01T20:26:26.847Z,34.43
2019-05-01T20:28:54.497Z,34.10
2019-05-01T20:31:25.259Z,32.30
2019-05-01T20:33:54.343Z,37.47
2019-05-01T20:36:23.348Z,35.47
2019-05-01T20:38:52.367Z,34.27
2019-05-01T20:41:21.427Z,33.47
2019-05-01T20:43:50.493Z,33.87
2019-05-01T20:46:21.455Z,35.50
2019-05-01T20:48:50.309Z,37.90
2019-05-01T20:52:16.665Z,34.50
2019-05-01T20:54:46.747Z,34.90
2019-05-01T21:00:28.066Z,40.57
2019-05-01T21:02:57.143Z,37.20
2019-05-01T21:05:34.348Z,35.43
2019-05-01T21:08:14.453Z,37.17
2019-05-01T21:10:50.571Z,38.73
2019-05-01T21:13:23.065Z,35.50
2019-05-01T21:15:50.211Z,33.20
2019-05-01T21:18:20.975Z,34.80
2019-05-01T21:20:50.024Z,37.50
2019-05-01T21:23:19.087Z,35.33
2019-05-01T21:25:48.113Z,34.40
2019-05-01T21:28:17.508Z,36.13
2019-05-01T21:30:47.573Z,34.63
2019-05-01T21:33:16.556Z,32.50
2019-05-01T21:35:45.606Z,37.17
2019-05-01T21:38:14.716Z,33.43
2019-05-01T21:40:43.982Z,32.00
2019-05-01T21:43:13.724Z,33.87
2019-05-01T21:45:43.392Z,31.63
2019-05-01T21:48:14.186Z,30.17
2019-05-01T21:50:43.983Z,33.47
2019-05-01T21:53:13.084Z,29.77
2019-05-01T21:55:42.028Z,30.17
2019-05-01T21:58:11.073Z,32.33
2019-05-01T22:00:41.803Z,29.90
2019-05-01T22:03:10.833Z,29.90
2019-05-01T22:05:40.961Z,27.60
2019-05-01T22:08:09.893Z,27.57
2019-05-01T22:10:51.383Z,32.27
2019-05-01T22:13:09.658Z,28.07
2019-05-01T22:15:47.004Z,26.60
2019-05-01T22:18:31.939Z,29.43
2019-05-01T22:21:07.513Z,29.47
2019-05-01T22:23:55.557Z,31.50
2019-05-01T22:26:25.578Z,32.00
2019-05-01T22:28:57.503Z,29.07
2019-05-01T22:31:42.964Z,30.00
2019-05-01T22:34:29.812Z,30.80
2019-05-01T22:36:58.988Z,29.87
2019-05-01T22:39:28.925Z,32.67
2019-05-01T22:41:57.908Z,30.43
2019-05-01T22:44:26.899Z,27.33
2019-05-01T22:46:55.844Z,33.07
2019-05-01T22:49:24.818Z,31.83
2019-05-01T22:51:53.808Z,27.87
2019-05-01T22:54:22.949Z,31.30
2019-05-01T22:56:52.041Z,30.83
2019-05-01T22:59:20.986Z,30.90
2019-05-01T23:01:53.053Z,28.57
2019-05-01T23:04:22.867Z,25.13
2019-05-01T23:06:54.503Z,29.20
2019-05-01T23:09:28.515Z,27.67
2019-05-01T23:11:55.839Z,28.90
2019-05-01T23:14:25.933Z,28.33
2019-05-01T23:17:16.363Z,33.60
2019-05-01T23:19:45.471Z,28.83
2019-05-01T23:22:14.602Z,30.00
2019-05-01T23:24:43.766Z,31.03
2019-05-01T23:27:12.752Z,29.07
2019-05-01T23:29:41.928Z,34.87
2019-05-01T23:32:11.008Z,30.63
2019-05-01T23:34:40.124Z,34.90
2019-05-01T23:37:09.064Z,35.10
2019-05-01T23:39:40.372Z,35.37
2019-05-01T23:42:08.745Z,36.87
2019-05-01T23:44:38.094Z,34.87
2019-05-01T23:47:08.427Z,37.80
2019-05-01T23:49:37.452Z,36.77
2019-05-01T23:52:06.947Z,41.50
2019-05-01T23:54:36.067Z,39.00
2019-05-01T23:57:05.013Z,37.30
2019-05-01T23:59:34.044Z,39.17
